Time;durP1;ratioP1;P1;durP2;ratioP2;P2;SDS_P1;SDS_P2;PMS_P1;PMS_P2;Temp;Humidity;BMP_temperature;BMP_pressure;BME280_temperature;BME280_humidity;BME280_pressure;Samples;Min_cycle;Max_cycle;Signal;HPM_P1;HPM_P2
2021/10/26 00:00:28;;;;;;;9.85;5.55;;;;;;;;;;5033626;28;20091;-53
2021/10/26 00:02:54;;;;;;;12.93;6.15;;;;;;;;;;5033257;28;20052;-53
2021/10/26 00:05:20;;;;;;;10.88;6.20;;;;;;;;;;5032551;28;20024;-52
2021/10/26 00:07:46;;;;;;;14.07;6.30;;;;;;;;;;5033645;28;20029;-53
2021/10/26 00:10:12;;;;;;;14.95;6.05;;;;;;;;;;5033288;28;20448;-53
2021/10/26 00:12:38;;;;;;;13.30;6.03;;;;;;;;;;5033434;28;20060;-53
2021/10/26 00:15:05;;;;;;;13.40;6.57;;;;;;;;;;5032505;28;20021;-53
2021/10/26 00:17:31;;;;;;;12.65;5.85;;;;;;;;;;5032997;28;20492;-53
2021/10/26 00:19:57;;;;;;;19.17;6.25;;;;;;;;;;5033458;28;20034;-52
2021/10/26 00:22:23;;;;;;;14.00;6.38;;;;;;;;;;5033227;28;20057;-53
2021/10/26 00:24:49;;;;;;;17.45;7.63;;;;;;;;;;5032308;28;20029;-52
2021/10/26 00:27:15;;;;;;;16.40;7.35;;;;;;;;;;5031686;28;20021;-53
2021/10/26 00:29:41;;;;;;;11.13;5.78;;;;;;;;;;5032252;28;20032;-53
2021/10/26 00:32:07;;;;;;;13.27;6.03;;;;;;;;;;5032928;28;20509;-52
2021/10/26 00:34:33;;;;;;;10.80;5.53;;;;;;;;;;5032240;28;20280;-53
2021/10/26 00:36:59;;;;;;;12.73;6.00;;;;;;;;;;5032999;28;20065;-52
2021/10/26 00:39:25;;;;;;;12.68;5.85;;;;;;;;;;5032914;28;20029;-53
2021/10/26 00:41:53;;;;;;;17.30;6.53;;;;;;;;;;5032661;28;20029;-53
2021/10/26 00:44:19;;;;;;;14.73;5.63;;;;;;;;;;5032546;28;20076;-53
2021/10/26 00:46:45;;;;;;;13.07;6.38;;;;;;;;;;5032895;28;20356;-53
2021/10/26 00:49:12;;;;;;;13.18;6.43;;;;;;;;;;5032785;28;20451;-53
2021/10/26 00:51:39;;;;;;;11.45;6.30;;;;;;;;;;5033110;28;20029;-53
2021/10/26 00:54:06;;;;;;;17.02;6.70;;;;;;;;;;5032048;28;20033;-52
2021/10/26 00:56:32;;;;;;;13.07;6.25;;;;;;;;;;5032781;28;20033;-52
2021/10/26 00:58:59;;;;;;;10.38;5.78;;;;;;;;;;5032864;28;20026;-53
2021/10/26 01:01:25;;;;;;;9.05;5.05;;;;;;;;;;5033077;28;20105;-52
2021/10/26 01:03:51;;;;;;;16.98;6.85;;;;;;;;;;5032277;28;20021;-53
2021/10/26 01:06:18;;;;;;;11.35;6.28;;;;;;;;;;5032653;28;20025;-53
2021/10/26 01:08:46;;;;;;;14.63;6.78;;;;;;;;;;5032657;28;20432;-53
2021/10/26 01:11:12;;;;;;;14.88;6.05;;;;;;;;;;5032720;28;20026;-53
2021/10/26 01:13:38;;;;;;;13.77;5.90;;;;;;;;;;5031860;28;20106;-52
2021/10/26 01:16:05;;;;;;;13.32;6.07;;;;;;;;;;5032688;28;20052;-53
2021/10/26 01:18:31;;;;;;;14.70;5.75;;;;;;;;;;5033001;28;20367;-53
2021/10/26 01:20:57;;;;;;;12.35;6.50;;;;;;;;;;5032393;28;20367;-53
2021/10/26 01:23:23;;;;;;;15.80;6.70;;;;;;;;;;5032835;28;20033;-52
2021/10/26 01:25:50;;;;;;;21.92;7.20;;;;;;;;;;5031433;28;20018;-52
2021/10/26 01:28:16;;;;;;;13.43;6.38;;;;;;;;;;5032294;28;20038;-53
2021/10/26 01:30:42;;;;;;;16.30;6.30;;;;;;;;;;5032076;28;20038;-52
2021/10/26 01:33:09;;;;;;;17.58;6.60;;;;;;;;;;5032423;28;20036;-52
2021/10/26 01:35:35;;;;;;;14.85;5.43;;;;;;;;;;5031972;28;20024;-52
2021/10/26 01:38:02;;;;;;;12.30;5.95;;;;;;;;;;5032591;28;20338;-53
2021/10/26 01:40:29;;;;;;;12.80;6.90;;;;;;;;;;5034494;28;20340;-53
2021/10/26 01:42:55;;;;;;;10.50;5.03;;;;;;;;;;5035233;28;20383;-53
2021/10/26 01:45:21;;;;;;;11.90;6.10;;;;;;;;;;5035361;28;20416;-53
2021/10/26 01:47:47;;;;;;;12.20;7.10;;;;;;;;;;5035866;28;20067;-53
2021/10/26 01:50:14;;;;;;;15.18;5.60;;;;;;;;;;5036150;28;20340;-52
2021/10/26 01:52:40;;;;;;;9.75;5.82;;;;;;;;;;5035885;28;20022;-53
2021/10/26 01:55:08;;;;;;;10.32;5.25;;;;;;;;;;5035093;28;20044;-52
2021/10/26 01:57:34;;;;;;;13.68;6.85;;;;;;;;;;5035405;28;20392;-53
2021/10/26 02:00:01;;;;;;;14.23;5.07;;;;;;;;;;5036037;28;20036;-52
2021/10/26 02:02:27;;;;;;;17.98;5.75;;;;;;;;;;5035464;28;20029;-53
2021/10/26 02:04:53;;;;;;;13.70;6.35;;;;;;;;;;5035354;28;20025;-52
2021/10/26 02:07:19;;;;;;;16.08;6.07;;;;;;;;;;5035746;28;20025;-53
2021/10/26 02:09:45;;;;;;;10.02;5.35;;;;;;;;;;5035680;28;20033;-52
2021/10/26 02:12:12;;;;;;;9.15;4.82;;;;;;;;;;5034895;28;20029;-53
2021/10/26 02:14:38;;;;;;;17.73;5.70;;;;;;;;;;5035117;28;20033;-53
2021/10/26 02:17:04;;;;;;;13.40;6.15;;;;;;;;;;5035719;28;20113;-52
2021/10/26 02:19:31;;;;;;;11.25;5.40;;;;;;;;;;5035806;28;20095;-52
2021/10/26 02:21:57;;;;;;;14.60;6.05;;;;;;;;;;5035335;28;20029;-53
2021/10/26 02:24:23;;;;;;;13.15;6.35;;;;;;;;;;5035037;28;20255;-53
2021/10/26 02:26:49;;;;;;;14.15;5.85;;;;;;;;;;5034999;28;20029;-52
2021/10/26 02:29:15;;;;;;;12.63;5.80;;;;;;;;;;5035307;28;20091;-53
2021/10/26 02:31:41;;;;;;;9.90;5.60;;;;;;;;;;5034921;28;20034;-52
2021/10/26 02:34:07;;;;;;;11.27;6.13;;;;;;;;;;5034684;28;20030;-52
2021/10/26 02:36:34;;;;;;;12.60;5.78;;;;;;;;;;5035247;28;20041;-52
2021/10/26 02:39:00;;;;;;;13.63;6.28;;;;;;;;;;5035140;28;20116;-52
2021/10/26 02:41:26;;;;;;;12.05;5.72;;;;;;;;;;5034581;28;20123;-52
2021/10/26 02:43:52;;;;;;;13.05;6.65;;;;;;;;;;5034344;28;20025;-52
2021/10/26 02:46:19;;;;;;;14.60;5.78;;;;;;;;;;5035180;28;20125;-53
2021/10/26 02:48:50;;;;;;;12.07;6.30;;;;;;;;;;5035052;28;20041;-53
2021/10/26 02:51:17;;;;;;;12.82;6.13;;;;;;;;;;5048016;28;20363;-53
2021/10/26 02:53:43;;;;;;;11.13;5.32;;;;;;;;;;5054141;28;20036;-53
2021/10/26 02:56:09;;;;;;;11.60;5.72;;;;;;;;;;5054363;28;20351;-52
2021/10/26 02:58:35;;;;;;;13.13;5.80;;;;;;;;;;5054765;28;20028;-53
2021/10/26 03:01:01;;;;;;;11.88;6.25;;;;;;;;;;5054648;28;20068;-52
2021/10/26 03:03:27;;;;;;;11.63;5.22;;;;;;;;;;5054313;28;20033;-52
2021/10/26 03:05:54;;;;;;;10.63;5.25;;;;;;;;;;5054031;28;20029;-52
2021/10/26 03:08:20;;;;;;;11.02;5.53;;;;;;;;;;5054690;28;20065;-53
2021/10/26 03:10:46;;;;;;;13.48;6.47;;;;;;;;;;5054662;28;20091;-52
2021/10/26 03:13:12;;;;;;;12.05;5.32;;;;;;;;;;5054097;28;20051;-53
2021/10/26 03:15:38;;;;;;;10.50;4.60;;;;;;;;;;5053785;28;20430;-53
2021/10/26 03:18:04;;;;;;;9.88;5.38;;;;;;;;;;5054533;28;20108;-52
2021/10/26 03:20:30;;;;;;;8.20;5.15;;;;;;;;;;5054491;28;20036;-53
2021/10/26 03:22:56;;;;;;;10.20;4.85;;;;;;;;;;5053911;28;20029;-52
2021/10/26 03:25:23;;;;;;;16.05;6.28;;;;;;;;;;5053764;28;20355;-52
2021/10/26 03:27:49;;;;;;;10.05;5.22;;;;;;;;;;5053862;28;20025;-53
2021/10/26 03:30:15;;;;;;;8.73;4.82;;;;;;;;;;5043583;28;20033;-53
2021/10/26 03:32:42;;;;;;;16.00;6.05;;;;;;;;;;5033813;28;20590;-53
2021/10/26 03:35:08;;;;;;;12.52;6.15;;;;;;;;;;5031330;28;20045;-53
2021/10/26 03:37:36;;;;;;;10.48;5.55;;;;;;;;;;5033910;28;20527;-52
2021/10/26 03:40:02;;;;;;;12.68;5.80;;;;;;;;;;5034073;28;20025;-52
2021/10/26 03:42:28;;;;;;;11.70;5.57;;;;;;;;;;5033813;28;20033;-53
2021/10/26 03:44:54;;;;;;;11.80;6.25;;;;;;;;;;5032831;28;20025;-52
2021/10/26 03:47:20;;;;;;;12.45;6.28;;;;;;;;;;5034216;28;20021;-52
2021/10/26 03:49:48;;;;;;;12.68;5.50;;;;;;;;;;5033932;28;20029;-53
2021/10/26 03:52:14;;;;;;;18.48;5.50;;;;;;;;;;5033329;28;20056;-53
2021/10/26 03:54:43;;;;;;;13.25;6.05;;;;;;;;;;5033168;28;20041;-52
2021/10/26 03:57:11;;;;;;;10.93;4.82;;;;;;;;;;5033620;28;20033;-52
2021/10/26 03:59:38;;;;;;;14.00;5.05;;;;;;;;;;5033735;28;20026;-53
2021/10/26 04:02:08;;;;;;;10.27;5.05;;;;;;;;;;5033757;28;20025;-52
2021/10/26 04:04:34;;;;;;;;;;;;;;;;;;5032189;28;20032;-53
2021/10/26 04:07:02;;;;;;;11.13;5.13;;;;;;;;;;5033468;28;19963;-52
2021/10/26 04:09:44;;;;;;;12.35;5.97;;;;;;;;;;5033739;28;20044;-52
2021/10/26 04:12:44;;;;;;;10.20;5.35;;;;;;;;;;5033492;28;20022;-52
2021/10/26 04:15:03;;;;;;;11.52;4.43;;;;;;;;;;5031209;28;20104;-53
2021/10/26 04:17:29;;;;;;;9.30;4.88;;;;;;;;;;5033067;28;20336;-53
2021/10/26 04:19:57;;;;;;;10.02;4.75;;;;;;;;;;5033363;28;20032;-53
2021/10/26 04:22:24;;;;;;;13.15;4.72;;;;;;;;;;5033306;28;20025;-52
2021/10/26 04:24:50;;;;;;;12.23;4.88;;;;;;;;;;5032599;28;20036;-53
2021/10/26 04:27:17;;;;;;;8.77;4.30;;;;;;;;;;5033177;28;20018;-52
2021/10/26 04:29:43;;;;;;;9.77;5.55;;;;;;;;;;5032235;28;20462;-53
2021/10/26 04:32:10;;;;;;;14.75;4.88;;;;;;;;;;5033119;28;20470;-53
2021/10/26 04:34:37;;;;;;;10.38;4.15;;;;;;;;;;5032234;28;20410;-52
2021/10/26 04:37:06;;;;;;;12.30;4.95;;;;;;;;;;5033268;28;20024;-53
2021/10/26 04:39:32;;;;;;;9.15;5.15;;;;;;;;;;5032958;28;20072;-52
2021/10/26 04:41:58;;;;;;;11.20;5.07;;;;;;;;;;5032909;28;20021;-53
2021/10/26 04:44:24;;;;;;;13.27;5.38;;;;;;;;;;5031497;28;20025;-53
2021/10/26 04:46:50;;;;;;;13.05;5.65;;;;;;;;;;5032655;28;20108;-52
2021/10/26 04:49:16;;;;;;;9.68;4.88;;;;;;;;;;5033258;28;20033;-52
2021/10/26 04:51:42;;;;;;;10.70;5.88;;;;;;;;;;5032404;28;20359;-53
2021/10/26 04:54:08;;;;;;;10.75;5.63;;;;;;;;;;5032138;28;20447;-53
2021/10/26 04:56:35;;;;;;;13.57;4.53;;;;;;;;;;5032853;28;20036;-53
2021/10/26 04:59:01;;;;;;;14.70;5.97;;;;;;;;;;5032509;28;20040;-53
2021/10/26 05:01:27;;;;;;;9.10;4.55;;;;;;;;;;5032895;28;20049;-53
2021/10/26 05:03:53;;;;;;;10.50;5.38;;;;;;;;;;5032026;28;20030;-53
2021/10/26 05:06:19;;;;;;;9.73;5.65;;;;;;;;;;5032915;28;20028;-52
2021/10/26 05:08:47;;;;;;;15.85;5.55;;;;;;;;;;5032699;28;20037;-53
2021/10/26 05:11:13;;;;;;;10.27;4.68;;;;;;;;;;5032242;28;20402;-53
2021/10/26 05:13:39;;;;;;;8.55;4.70;;;;;;;;;;5032007;28;20033;-53
2021/10/26 05:16:05;;;;;;;16.23;5.50;;;;;;;;;;5035406;28;20037;-53
2021/10/26 05:18:35;;;;;;;11.55;6.32;;;;;;;;;;5036820;28;20026;-52
2021/10/26 05:21:04;;;;;;;12.80;6.10;;;;;;;;;;5036436;28;20067;-53
2021/10/26 05:23:30;;;;;;;12.38;6.30;;;;;;;;;;5036130;28;20256;-52
2021/10/26 05:25:56;;;;;;;11.82;5.93;;;;;;;;;;5036130;28;20083;-52
2021/10/26 05:28:22;;;;;;;10.20;5.60;;;;;;;;;;5036196;28;20451;-52
2021/10/26 05:30:48;;;;;;;15.80;7.07;;;;;;;;;;5036105;28;20438;-52
2021/10/26 05:33:14;;;;;;;9.60;4.97;;;;;;;;;;5036873;28;20443;-52
2021/10/26 05:35:40;;;;;;;17.85;6.03;;;;;;;;;;5035504;28;20025;-52
2021/10/26 05:38:06;;;;;;;12.77;5.18;;;;;;;;;;5036354;28;20029;-51
2021/10/26 05:40:32;;;;;;;14.63;7.88;;;;;;;;;;5036321;28;20014;-52
2021/10/26 05:42:58;;;;;;;14.60;6.25;;;;;;;;;;5035687;28;20040;-51
2021/10/26 05:45:24;;;;;;;12.52;6.38;;;;;;;;;;5035367;28;20064;-52
2021/10/26 05:47:50;;;;;;;14.68;6.55;;;;;;;;;;5036131;28;20044;-52
2021/10/26 05:50:16;;;;;;;10.25;5.10;;;;;;;;;;5036414;28;20025;-52
2021/10/26 05:52:42;;;;;;;19.15;5.82;;;;;;;;;;5035834;28;20029;-52
2021/10/26 05:55:08;;;;;;;10.93;4.97;;;;;;;;;;5034983;28;20017;-52
2021/10/26 05:57:34;;;;;;;14.32;6.38;;;;;;;;;;5035956;28;20060;-52
2021/10/26 06:00:00;;;;;;;14.25;6.32;;;;;;;;;;5035708;28;20053;-52
2021/10/26 06:02:26;;;;;;;16.70;7.20;;;;;;;;;;5036251;28;20021;-51
2021/10/26 06:04:53;;;;;;;15.90;6.40;;;;;;;;;;5035401;28;20112;-52
2021/10/26 06:07:19;;;;;;;15.52;6.80;;;;;;;;;;5035782;28;20100;-52
2021/10/26 06:09:45;;;;;;;12.45;6.55;;;;;;;;;;5035679;28;20049;-52
2021/10/26 06:12:17;;;;;;;15.55;6.47;;;;;;;;;;5035647;28;20022;-51
2021/10/26 06:14:44;;;;;;;10.07;4.93;;;;;;;;;;5034891;28;20025;-53
2021/10/26 06:17:11;;;;;;;12.75;6.57;;;;;;;;;;5035092;28;20443;-52
2021/10/26 06:19:37;;;;;;;17.05;8.00;;;;;;;;;;5035908;28;20026;-52
2021/10/26 06:22:03;;;;;;;17.20;6.20;;;;;;;;;;5035513;28;20022;-52
2021/10/26 06:24:29;;;;;;;15.02;7.00;;;;;;;;;;5034786;28;20371;-52
2021/10/26 06:26:55;;;;;;;15.80;6.10;;;;;;;;;;5034099;28;20449;-52
2021/10/26 06:29:21;;;;;;;13.70;6.70;;;;;;;;;;5035306;28;20045;-52
2021/10/26 06:31:47;;;;;;;12.52;6.38;;;;;;;;;;5034846;28;20461;-52
2021/10/26 06:34:13;;;;;;;17.67;7.28;;;;;;;;;;5034661;28;20025;-52
2021/10/26 06:36:39;;;;;;;14.68;6.43;;;;;;;;;;5035216;28;20022;-52
2021/10/26 06:39:05;;;;;;;13.35;7.05;;;;;;;;;;5035405;28;20033;-52
2021/10/26 06:41:31;;;;;;;18.17;5.97;;;;;;;;;;5035124;28;20022;-52
2021/10/26 06:43:58;;;;;;;13.32;6.72;;;;;;;;;;5033983;28;20052;-52
2021/10/26 06:46:24;;;;;;;14.20;6.57;;;;;;;;;;5035027;28;20014;-52
2021/10/26 06:48:50;;;;;;;16.88;7.63;;;;;;;;;;5034795;28;20038;-52
2021/10/26 06:51:16;;;;;;;13.40;7.05;;;;;;;;;;5034719;28;20462;-52
2021/10/26 06:53:43;;;;;;;16.42;6.57;;;;;;;;;;5033954;28;20029;-52
2021/10/26 06:56:14;;;;;;;12.43;6.80;;;;;;;;;;5034934;28;20474;-52
2021/10/26 06:58:40;;;;;;;12.18;6.43;;;;;;;;;;5035135;28;20053;-52
2021/10/26 07:01:08;;;;;;;16.05;6.38;;;;;;;;;;5034779;28;20068;-52
2021/10/26 07:03:37;;;;;;;17.00;6.25;;;;;;;;;;5033761;28;20474;-52
2021/10/26 07:06:06;;;;;;;11.63;6.38;;;;;;;;;;5034912;28;20033;-52
2021/10/26 07:08:32;;;;;;;14.73;6.35;;;;;;;;;;5034623;28;20037;-52
2021/10/26 07:10:58;;;;;;;12.95;6.97;;;;;;;;;;5034686;28;20025;-52
2021/10/26 07:13:25;;;;;;;11.55;6.00;;;;;;;;;;5034297;28;20086;-52
2021/10/26 07:15:52;;;;;;;14.40;5.50;;;;;;;;;;5034117;28;20033;-52
2021/10/26 07:18:18;;;;;;;12.52;6.20;;;;;;;;;;5034335;28;20067;-52
2021/10/26 07:20:44;;;;;;;12.43;6.15;;;;;;;;;;5034305;28;20026;-52
2021/10/26 07:23:10;;;;;;;19.70;7.53;;;;;;;;;;5034302;28;20103;-52
2021/10/26 07:25:36;;;;;;;15.38;7.03;;;;;;;;;;5033727;28;20033;-52
2021/10/26 07:28:02;;;;;;;15.35;6.45;;;;;;;;;;5034050;28;20045;-52
2021/10/26 07:30:32;;;;;;;14.70;6.80;;;;;;;;;;5034147;28;20044;-52
2021/10/26 07:33:01;;;;;;;25.50;8.15;;;;;;;;;;5033933;28;20028;-52
2021/10/26 07:35:34;;;;;;;15.00;7.15;;;;;;;;;;5033629;28;20088;-52
2021/10/26 07:38:01;;;;;;;9.98;5.50;;;;;;;;;;5033640;28;20033;-52
2021/10/26 07:40:27;;;;;;;10.30;5.38;;;;;;;;;;5033882;28;20439;-52
2021/10/26 07:42:53;;;;;;;14.95;6.60;;;;;;;;;;5033895;28;20387;-52
2021/10/26 07:45:19;;;;;;;14.70;6.40;;;;;;;;;;5033005;28;20592;-52
2021/10/26 07:47:45;;;;;;;13.77;6.13;;;;;;;;;;5033494;28;20125;-53
2021/10/26 07:50:11;;;;;;;11.52;6.35;;;;;;;;;;5033974;28;20065;-52
2021/10/26 07:52:38;;;;;;;15.57;6.72;;;;;;;;;;5033892;28;20097;-52
2021/10/26 07:55:05;;;;;;;11.68;5.85;;;;;;;;;;5033372;28;20021;-52
2021/10/26 07:57:31;;;;;;;11.13;5.68;;;;;;;;;;5033705;28;20336;-52
2021/10/26 07:59:57;;;;;;;14.32;6.28;;;;;;;;;;5033648;28;20029;-52
2021/10/26 08:02:24;;;;;;;13.75;5.97;;;;;;;;;;5033246;28;20557;-52
2021/10/26 08:04:50;;;;;;;12.43;6.30;;;;;;;;;;5032932;28;20168;-52
2021/10/26 08:07:17;;;;;;;13.93;6.05;;;;;;;;;;5033901;28;20025;-52
2021/10/26 08:09:47;;;;;;;15.52;6.78;;;;;;;;;;5033465;28;20033;-52
2021/10/26 08:12:13;;;;;;;13.70;5.60;;;;;;;;;;5033543;28;20026;-52
2021/10/26 08:14:40;;;;;;;14.55;6.03;;;;;;;;;;5032446;28;20276;-53
2021/10/26 08:17:06;;;;;;;20.17;6.88;;;;;;;;;;5033392;28;20455;-52
2021/10/26 08:19:32;;;;;;;14.57;6.55;;;;;;;;;;5033095;28;20029;-52
2021/10/26 08:21:59;;;;;;;15.38;7.13;;;;;;;;;;5033383;28;20090;-52
2021/10/26 08:24:30;;;;;;;18.45;7.18;;;;;;;;;;5032237;28;20606;-52
2021/10/26 08:26:57;;;;;;;20.15;7.05;;;;;;;;;;5033341;28;20037;-52
2021/10/26 08:29:43;;;;;;;14.32;6.53;;;;;;;;;;5032758;28;20037;-52
2021/10/26 08:37:39;;;;;;;15.68;7.20;;;;;;;;;;5032789;28;20180;-53
2021/10/26 08:40:06;;;;;;;19.42;7.97;;;;;;;;;;5032899;28;20037;-53
2021/10/26 08:42:32;;;;;;;20.13;7.78;;;;;;;;;;5032889;28;20447;-52
2021/10/26 08:44:58;;;;;;;17.65;7.40;;;;;;;;;;5032390;28;20037;-52
2021/10/26 08:47:24;;;;;;;14.32;7.22;;;;;;;;;;5032713;28;20482;-52
2021/10/26 08:49:52;;;;;;;11.90;6.40;;;;;;;;;;5032054;28;20037;-52
2021/10/26 08:52:19;;;;;;;19.27;7.68;;;;;;;;;;5032906;28;20061;-52
2021/10/26 08:54:46;;;;;;;15.55;8.02;;;;;;;;;;5031812;28;20160;-53
2021/10/26 08:57:12;;;;;;;19.83;8.52;;;;;;;;;;5033278;28;20022;-52
2021/10/26 08:59:38;;;;;;;20.35;9.88;;;;;;;;;;5032766;28;20033;-52
2021/10/26 09:02:05;;;;;;;21.73;7.82;;;;;;;;;;5032867;28;20026;-52
2021/10/26 09:04:32;;;;;;;14.75;6.97;;;;;;;;;;5031451;28;20356;-52
2021/10/26 09:07:04;;;;;;;16.30;7.63;;;;;;;;;;5032756;28;20052;-52
2021/10/26 09:09:32;;;;;;;18.83;8.50;;;;;;;;;;5032620;28;20044;-52
2021/10/26 09:17:32;;;;;;;23.17;7.88;;;;;;;;;;5032855;28;20566;-53
2021/10/26 09:20:01;;;;;;;18.63;7.90;;;;;;;;;;5032279;28;20026;-52
2021/10/26 09:22:28;;;;;;;18.20;7.07;;;;;;;;;;5032922;28;20043;-53
2021/10/26 09:24:59;;;;;;;21.17;9.00;;;;;;;;;;5031900;28;20034;-53
2021/10/26 09:27:24;;;;;;;;;;;;;;;;;;5033013;28;20070;-52
2021/10/26 09:29:51;;;;;;;19.85;7.57;;;;;;;;;;5032283;28;20347;-52
2021/10/26 09:32:19;;;;;;;17.50;7.93;;;;;;;;;;5032896;28;20025;-52
2021/10/26 09:34:47;;;;;;;16.17;7.28;;;;;;;;;;5030721;28;20041;-52
2021/10/26 09:37:15;;;;;;;16.67;7.75;;;;;;;;;;5032335;28;20053;-52
2021/10/26 09:39:48;;;;;;;16.95;9.05;;;;;;;;;;5032724;28;20347;-52
2021/10/26 09:42:15;;;;;;;22.30;8.43;;;;;;;;;;5031973;28;20099;-52
2021/10/26 09:44:42;;;;;;;20.27;9.60;;;;;;;;;;5030483;28;20032;-52
2021/10/26 09:47:13;;;;;;;19.27;9.52;;;;;;;;;;5032161;28;20367;-52
2021/10/26 09:49:40;;;;;;;22.42;8.50;;;;;;;;;;5032310;28;20076;-52
2021/10/26 09:52:08;;;;;;;22.20;8.18;;;;;;;;;;5032008;28;20482;-52
2021/10/26 09:54:34;;;;;;;17.00;8.27;;;;;;;;;;5031586;28;20028;-52
2021/10/26 09:57:03;;;;;;;25.52;9.13;;;;;;;;;;5032569;28;20048;-52
2021/10/26 09:59:30;;;;;;;17.55;8.32;;;;;;;;;;5032459;28;20041;-53
2021/10/26 10:01:56;;;;;;;24.63;9.75;;;;;;;;;;5034539;28;20087;-52
2021/10/26 10:04:27;;;;;;;24.92;9.43;;;;;;;;;;5035422;28;20098;-52
2021/10/26 10:06:53;;;;;;;22.00;9.52;;;;;;;;;;5035359;28;20017;-52
2021/10/26 10:09:23;;;;;;;22.55;9.55;;;;;;;;;;5035609;28;20478;-52
2021/10/26 10:12:07;;;;;;;22.67;10.20;;;;;;;;;;5035741;28;20025;-52
2021/10/26 10:14:38;;;;;;;21.88;9.70;;;;;;;;;;5034894;28;20466;-52
2021/10/26 10:17:06;;;;;;;17.27;9.30;;;;;;;;;;5035475;28;20060;-52
2021/10/26 10:19:34;;;;;;;22.00;8.98;;;;;;;;;;5035090;28;20471;-52
2021/10/26 10:22:01;;;;;;;19.90;8.35;;;;;;;;;;5035258;28;20378;-52
2021/10/26 10:24:28;;;;;;;20.92;9.10;;;;;;;;;;5034822;28;20096;-52
2021/10/26 10:26:55;;;;;;;17.35;8.32;;;;;;;;;;5035396;28;20410;-52
2021/10/26 10:29:21;;;;;;;14.90;7.18;;;;;;;;;;5035473;28;20033;-52
2021/10/26 10:31:49;;;;;;;18.50;7.63;;;;;;;;;;5035080;28;20054;-52
2021/10/26 10:34:20;;;;;;;18.38;6.97;;;;;;;;;;5034535;28;20384;-52
2021/10/26 10:36:46;;;;;;;19.35;8.82;;;;;;;;;;5034708;28;20029;-52
2021/10/26 10:39:14;;;;;;;13.68;7.53;;;;;;;;;;5035340;28;20459;-52
2021/10/26 10:41:42;;;;;;;15.25;6.78;;;;;;;;;;5035315;28;20026;-52
2021/10/26 10:44:20;;;;;;;16.80;7.55;;;;;;;;;;5033196;28;20026;-53
2021/10/26 10:46:53;;;;;;;15.80;6.82;;;;;;;;;;5035070;28;20040;-52
2021/10/26 10:49:27;;;;;;;14.48;6.72;;;;;;;;;;5034813;28;20025;-52
2021/10/26 10:51:57;;;;;;;14.57;7.45;;;;;;;;;;5034838;28;20396;-52
2021/10/26 10:54:41;;;;;;;15.20;7.13;;;;;;;;;;5034496;28;20021;-52
2021/10/26 10:57:25;;;;;;;12.20;5.78;;;;;;;;;;5035201;28;20040;-52
2021/10/26 10:59:52;;;;;;;17.75;7.90;;;;;;;;;;5034971;28;20029;-52
2021/10/26 11:02:24;;;;;;;16.63;8.38;;;;;;;;;;5034465;28;20451;-53
2021/10/26 11:04:52;;;;;;;15.27;7.00;;;;;;;;;;5033515;28;20025;-52
2021/10/26 11:07:37;;;;;;;16.42;6.97;;;;;;;;;;5034749;28;20482;-52
2021/10/26 11:10:04;;;;;;;16.05;7.88;;;;;;;;;;5034765;28;20037;-52
2021/10/26 11:12:31;;;;;;;17.83;6.38;;;;;;;;;;5034347;28;20042;-52
2021/10/26 11:15:02;;;;;;;12.60;6.63;;;;;;;;;;5033343;28;20076;-52
2021/10/26 11:20:05;;;;;;;18.52;5.95;;;;;;;;;;5034432;28;20029;-52
2021/10/26 11:22:46;;;;;;;12.65;6.45;;;;;;;;;;5034436;28;20026;-52
2021/10/26 11:25:24;;;;;;;15.52;7.25;;;;;;;;;;5033720;28;20030;-52
2021/10/26 11:27:50;;;;;;;13.40;5.90;;;;;;;;;;5033825;28;20124;-52
2021/10/26 11:30:39;;;;;;;9.23;6.00;;;;;;;;;;5034187;28;20124;-52
2021/10/26 11:33:15;;;;;;;12.30;5.80;;;;;;;;;;5031247;28;20363;-52
2021/10/26 11:35:55;;;;;;;10.15;5.80;;;;;;;;;;5033129;28;20025;-52
2021/10/26 11:38:22;;;;;;;12.45;5.72;;;;;;;;;;5033737;28;20030;-52
2021/10/26 11:40:51;;;;;;;17.02;7.38;;;;;;;;;;5034214;28;20037;-52
2021/10/26 11:43:18;;;;;;;13.25;6.63;;;;;;;;;;5033959;28;20018;-52
2021/10/26 11:46:00;;;;;;;17.50;7.40;;;;;;;;;;5032110;28;20022;-52
2021/10/26 11:48:48;;;;;;;14.82;7.32;;;;;;;;;;5033911;28;20076;-52
2021/10/26 11:51:38;;;;;;;14.90;7.07;;;;;;;;;;5034166;28;20089;-52
2021/10/26 11:54:09;;;;;;;15.10;6.90;;;;;;;;;;5029955;28;20061;-52
2021/10/26 11:56:37;;;;;;;14.93;6.25;;;;;;;;;;5033306;28;20040;-52
2021/10/26 11:59:03;;;;;;;13.38;7.30;;;;;;;;;;5033982;28;20017;-53
2021/10/26 12:01:35;;;;;;;12.02;5.90;;;;;;;;;;5033792;28;20026;-52
2021/10/26 12:04:02;;;;;;;15.05;6.82;;;;;;;;;;5032624;28;20466;-52
2021/10/26 12:06:29;;;;;;;20.85;7.38;;;;;;;;;;5033554;28;20040;-52
2021/10/26 12:08:56;;;;;;;18.58;6.00;;;;;;;;;;5033352;28;20358;-52
2021/10/26 12:11:30;;;;;;;13.98;6.72;;;;;;;;;;5033407;28;20027;-53
2021/10/26 12:14:16;;;;;;;14.55;7.53;;;;;;;;;;5032947;28;20072;-52
2021/10/26 12:17:00;;;;;;;11.93;6.53;;;;;;;;;;5033045;28;20025;-52
2021/10/26 12:19:27;;;;;;;16.35;7.50;;;;;;;;;;5033655;28;20021;-52
2021/10/26 12:21:54;;;;;;;13.00;6.68;;;;;;;;;;5033301;28;20440;-53
2021/10/26 12:24:27;;;;;;;14.95;7.25;;;;;;;;;;5031697;28;20120;-52
2021/10/26 12:27:05;;;;;;;17.58;9.02;;;;;;;;;;5033383;28;20347;-52
2021/10/26 12:29:32;;;;;;;17.45;7.70;;;;;;;;;;5033031;28;20030;-52
2021/10/26 12:31:59;;;;;;;15.38;7.82;;;;;;;;;;5033051;28;20052;-52
2021/10/26 12:34:25;;;;;;;17.80;8.15;;;;;;;;;;5032431;28;20291;-52
2021/10/26 12:36:52;;;;;;;16.67;8.13;;;;;;;;;;5032851;28;20447;-52
2021/10/26 12:39:24;;;;;;;12.95;8.02;;;;;;;;;;5033292;28;20032;-52
2021/10/26 12:41:50;;;;;;;16.27;7.60;;;;;;;;;;5033455;28;20095;-52
2021/10/26 12:44:20;;;;;;;13.27;7.63;;;;;;;;;;5030893;28;20501;-52
2021/10/26 12:47:01;;;;;;;19.10;9.20;;;;;;;;;;5032834;28;20362;-52
2021/10/26 12:49:34;;;;;;;17.77;9.20;;;;;;;;;;5033308;28;20033;-52
2021/10/26 12:52:10;;;;;;;21.40;9.10;;;;;;;;;;5033161;28;20022;-52
2021/10/26 12:54:36;;;;;;;14.90;7.90;;;;;;;;;;5031789;28;20076;-52
2021/10/26 12:57:02;;;;;;;17.33;9.18;;;;;;;;;;5033076;28;20025;-53
2021/10/26 12:59:29;;;;;;;21.55;9.18;;;;;;;;;;5033298;28;20359;-52
2021/10/26 13:02:01;;;;;;;13.40;7.57;;;;;;;;;;5032774;28;20099;-52
2021/10/26 13:04:28;;;;;;;17.42;7.25;;;;;;;;;;5032231;28;20033;-52
2021/10/26 13:06:54;;;;;;;16.45;7.65;;;;;;;;;;5032667;28;20022;-52
2021/10/26 13:09:47;;;;;;;17.33;6.93;;;;;;;;;;5033054;28;20041;-52
2021/10/26 13:12:20;;;;;;;14.77;6.25;;;;;;;;;;5032704;28;20469;-52
2021/10/26 13:14:50;;;;;;;11.35;5.45;;;;;;;;;;5032129;28;20033;-52
2021/10/26 13:17:36;;;;;;;18.73;7.03;;;;;;;;;;5032246;28;20032;-52
2021/10/26 13:20:21;;;;;;;13.98;5.47;;;;;;;;;;5033000;28;20240;-52
2021/10/26 13:22:56;;;;;;;16.25;7.78;;;;;;;;;;5032602;28;20041;-52
2021/10/26 13:25:23;;;;;;;12.15;5.78;;;;;;;;;;5031887;28;20029;-52
2021/10/26 13:27:50;;;;;;;15.02;6.68;;;;;;;;;;5032229;28;20025;-53
2021/10/26 13:30:16;;;;;;;12.95;5.53;;;;;;;;;;5032741;28;20037;-52
2021/10/26 13:32:42;;;;;;;11.85;6.22;;;;;;;;;;5032486;28;20025;-53
2021/10/26 13:35:08;;;;;;;11.85;5.93;;;;;;;;;;5031927;28;20029;-52
2021/10/26 13:37:34;;;;;;;15.55;6.65;;;;;;;;;;5036305;28;20025;-52
2021/10/26 13:40:00;;;;;;;13.82;7.20;;;;;;;;;;5036651;28;20022;-52
2021/10/26 13:42:29;;;;;;;9.32;5.47;;;;;;;;;;5035761;28;20079;-52
2021/10/26 13:44:55;;;;;;;15.80;6.10;;;;;;;;;;5034688;28;20029;-52
2021/10/26 13:47:21;;;;;;;11.18;6.00;;;;;;;;;;5036046;28;20051;-53
2021/10/26 13:49:47;;;;;;;12.63;6.00;;;;;;;;;;5036102;28;20076;-52
2021/10/26 13:52:13;;;;;;;15.27;6.55;;;;;;;;;;5036194;28;20406;-52
2021/10/26 13:54:39;;;;;;;15.25;6.07;;;;;;;;;;5035483;28;20140;-52
2021/10/26 13:57:05;;;;;;;10.20;6.00;;;;;;;;;;5035708;28;20100;-52
2021/10/26 13:59:31;;;;;;;8.35;5.43;;;;;;;;;;5036025;28;20030;-52
2021/10/26 14:01:57;;;;;;;12.75;6.10;;;;;;;;;;5035710;28;20465;-52
2021/10/26 14:04:23;;;;;;;12.35;6.63;;;;;;;;;;5035110;28;20035;-53
2021/10/26 14:06:50;;;;;;;13.75;6.65;;;;;;;;;;5035813;28;20031;-52
2021/10/26 14:09:16;;;;;;;18.42;6.10;;;;;;;;;;5035927;28;20034;-52
2021/10/26 14:11:42;;;;;;;15.63;6.63;;;;;;;;;;5035982;28;20021;-52
2021/10/26 14:14:08;;;;;;;10.98;5.75;;;;;;;;;;5034944;28;20033;-52
2021/10/26 14:16:35;;;;;;;15.20;6.70;;;;;;;;;;5035380;28;20559;-52
2021/10/26 14:19:01;;;;;;;15.82;7.03;;;;;;;;;;5035343;28;20367;-52
2021/10/26 14:21:29;;;;;;;13.80;6.47;;;;;;;;;;5035887;28;20059;-52
2021/10/26 14:23:55;;;;;;;14.88;7.28;;;;;;;;;;5034830;28;20037;-52
2021/10/26 14:26:21;;;;;;;13.77;7.82;;;;;;;;;;5035716;28;20049;-52
2021/10/26 14:28:47;;;;;;;16.27;7.18;;;;;;;;;;5035560;28;20071;-52
2021/10/26 14:31:19;;;;;;;14.20;6.50;;;;;;;;;;5035314;28;20088;-52
2021/10/26 14:33:45;;;;;;;12.35;6.50;;;;;;;;;;5034615;28;20113;-53
2021/10/26 14:36:17;;;;;;;12.35;5.90;;;;;;;;;;5035100;28;20014;-52
2021/10/26 14:38:54;;;;;;;14.07;5.95;;;;;;;;;;5035493;28;20029;-52
2021/10/26 14:41:30;;;;;;;10.20;5.10;;;;;;;;;;5035312;28;20030;-53
2021/10/26 14:57:29;;;;;;;8.00;4.25;;;;;;;;;;5035026;28;20026;-52
2021/10/26 14:59:55;;;;;;;8.98;4.90;;;;;;;;;;5035076;28;20053;-52
2021/10/26 15:02:21;;;;;;;12.07;5.03;;;;;;;;;;5034953;28;20664;-52